Weather History for Harvey, ND

Change the Weather History Date:

Friday, October 26, 2012

  Actual Average (KRUG) Record (KRUG)
Temperature  
Mean Temperature 28 °F -  
Max Temperature 32 °F 53 °F 77 °F (1955)
Min Temperature 23 °F 31 °F 7 °F (1957)
Degree Days  
Heating Degree Days 38    
Moisture  
Dew Point 21 °F    
Average Humidity 73    
Maximum Humidity 93    
Minimum Humidity 55    
Precipitation  
Precipitation 0.02 in - - ()
Sea Level Pressure  
Sea Level Pressure 30.25 in    
Wind  
Wind Speed 17 mph (WNW)    
Max Wind Speed 25 mph    
Max Gust Speed 36 mph    
Visibility 10 miles    
Events Snow    
Averages and records for this station are not official NWS values.
T = Trace of Precipitation, MM = Missing Value Source: NWS Daily Summary

Daily Weather History Graph

Daily Weather History Graph

Search for Another Location

Airport:

Trip Planner

Search our weather history database for the weather conditions in past years. The results will help you decide how hot, cold, wet, or windy it might be!

Date:

Astronomy

Oct. 26, 2012 Rise Set
Actual Time 8:15 AM CDT 6:30 PM CDT
Civil Twilight 7:43 AM CDT 7:02 PM CDT
Nautical Twilight 7:07 AM CDT 7:38 PM CDT
Astronomical Twilight 6:31 AM CDT 8:14 PM CDT
Moon 4:56 PM CDT (10/26) 5:03 AM CDT (10/26)
Length of Visible Light 11h 18m
Length of Day
10h 14m
Waxing Gibbous, 91% of the Moon is Illuminated
Oct 26
Waxing Gibbous
Oct 29
Full
Nov 6
Last Quarter
Nov 13
New
Nov 20
First Quarter

Hourly Weather History & Observations

Time (CDT) Temp. Windchill Dew Point Humidity Pressure Visibility Wind Dir Wind Speed Gust Speed Precip Events Conditions
12:55 AM 32.0 °F 19.2 °F 21.2 °F 64% 30.19 in 10.0 mi WNW 23.0 mph 29.9 mph N/A   Overcast
1:15 AM 32.0 °F 19.5 °F 21.2 °F 64% 30.19 in 10.0 mi WNW 21.9 mph 29.9 mph N/A   Mostly Cloudy
1:35 AM 32.0 °F 20.8 °F 21.2 °F 64% 30.19 in 10.0 mi WNW 17.3 mph 27.6 mph N/A   Overcast
1:55 AM 32.0 °F 19.5 °F 19.4 °F 60% 30.20 in 10.0 mi NW 21.9 mph 27.6 mph N/A   Overcast
2:15 AM 32.0 °F 20.1 °F 19.4 °F 60% 30.20 in 10.0 mi WNW 19.6 mph 28.8 mph N/A   Overcast
2:35 AM 32.0 °F 20.1 °F 19.4 °F 60% 30.20 in 10.0 mi WNW 19.6 mph 26.5 mph N/A   Mostly Cloudy
2:55 AM 32.0 °F 20.5 °F 19.4 °F 60% 30.21 in 10.0 mi WNW 18.4 mph 27.6 mph N/A   Mostly Cloudy
3:15 AM 32.0 °F 20.5 °F 19.4 °F 60% 30.21 in 10.0 mi WNW 18.4 mph 27.6 mph N/A   Mostly Cloudy
3:35 AM 32.0 °F 20.8 °F 19.4 °F 60% 30.22 in 10.0 mi WNW 17.3 mph 25.3 mph N/A   Overcast
3:55 AM 32.0 °F 20.1 °F 19.4 °F 60% 30.22 in 10.0 mi WNW 19.6 mph 31.1 mph N/A   Overcast
4:15 AM 32.0 °F 19.8 °F 17.6 °F 55% 30.22 in 10.0 mi WNW 20.7 mph 32.2 mph N/A   Overcast
4:35 AM 32.0 °F 20.5 °F 17.6 °F 55% 30.22 in 10.0 mi WNW 18.4 mph 27.6 mph N/A   Overcast
4:55 AM 32.0 °F 21.2 °F 17.6 °F 55% 30.22 in 10.0 mi WNW 16.1 mph 24.2 mph N/A   Overcast
5:35 AM 30.2 °F 16.8 °F 19.4 °F 64% 30.23 in 10.0 mi WNW 23.0 mph 32.2 mph N/A   Overcast
5:55 AM 30.2 °F 18.1 °F 21.2 °F 69% 30.24 in 10.0 mi WNW 18.4 mph 29.9 mph N/A   Overcast
6:15 AM 28.4 °F 14.7 °F 19.4 °F 69% 30.24 in 10.0 mi NW 21.9 mph 29.9 mph N/A   Mostly Cloudy
6:35 AM 28.4 °F 16.6 °F 23.0 °F 80% 30.24 in 10.0 mi WNW 16.1 mph - N/A   Overcast
6:55 AM 28.4 °F 15.8 °F 23.0 °F 80% 30.24 in 10.0 mi WNW 18.4 mph 23.0 mph N/A   Overcast
7:15 AM 28.4 °F 14.4 °F 23.0 °F 80% 30.25 in 10.0 mi WNW 23.0 mph 29.9 mph N/A   Overcast
7:35 AM 28.4 °F 16.2 °F 21.2 °F 74% 30.25 in 10.0 mi WNW 17.3 mph - N/A   Overcast
7:55 AM 26.6 °F 15.2 °F 19.4 °F 74% 30.25 in 10.0 mi WNW 13.8 mph 24.2 mph N/A   Scattered Clouds
8:15 AM 26.6 °F 15.7 °F 21.2 °F 80% 30.26 in 10.0 mi WNW 12.7 mph - N/A   Mostly Cloudy
8:35 AM 26.6 °F 14.7 °F 21.2 °F 80% 30.27 in 10.0 mi WNW 15.0 mph 23.0 mph N/A   Mostly Cloudy
8:55 AM 26.6 °F 15.2 °F 21.2 °F 80% 30.27 in 10.0 mi WNW 13.8 mph - N/A   Partly Cloudy
9:15 AM 26.6 °F 13.8 °F 19.4 °F 74% 30.28 in 10.0 mi WNW 17.3 mph - N/A   Clear
9:35 AM 26.6 °F 14.7 °F 19.4 °F 74% 30.29 in 10.0 mi WNW 15.0 mph 19.6 mph N/A   Clear
10:15 AM 28.4 °F 15.1 °F 19.4 °F 69% 30.30 in 10.0 mi WNW 20.7 mph 24.2 mph N/A   Clear
10:35 AM 30.2 °F 17.1 °F 19.4 °F 64% 30.30 in 10.0 mi WNW 21.9 mph 31.1 mph N/A   Clear
10:55 AM 32.0 °F 19.5 °F 17.6 °F 55% 30.30 in 10.0 mi WNW 21.9 mph 27.6 mph N/A   Partly Cloudy
11:15 AM 32.0 °F 18.6 °F 17.6 °F 55% 30.29 in 10.0 mi NW 25.3 mph 35.7 mph N/A   Mostly Cloudy
11:35 AM 32.0 °F 20.1 °F 19.4 °F 60% 30.30 in 10.0 mi WNW 19.6 mph 26.5 mph N/A   Overcast
11:55 AM 32.0 °F 21.2 °F 19.4 °F 60% 30.30 in 10.0 mi WNW 16.1 mph 24.2 mph N/A   Overcast
12:15 PM 32.0 °F 20.5 °F 19.4 °F 60% 30.29 in 10.0 mi WNW 18.4 mph - N/A   Mostly Cloudy
12:35 PM 32.0 °F 19.8 °F 19.4 °F 60% 30.29 in 10.0 mi NW 20.7 mph 25.3 mph N/A   Overcast
12:55 PM 32.0 °F 20.5 °F 19.4 °F 60% 30.28 in 10.0 mi NW 18.4 mph 25.3 mph N/A   Overcast
1:15 PM 32.0 °F 21.2 °F 19.4 °F 60% 30.28 in 10.0 mi WNW 16.1 mph 24.2 mph N/A   Overcast
1:35 PM 32.0 °F 19.8 °F 19.4 °F 60% 30.27 in 10.0 mi NW 20.7 mph 25.3 mph N/A   Overcast
1:55 PM 32.0 °F 20.5 °F 17.6 °F 55% 30.27 in 10.0 mi WNW 18.4 mph 25.3 mph N/A   Mostly Cloudy
2:15 PM 30.2 °F 20.8 °F 23.0 °F 75% 30.27 in 5.0 mi WNW 11.5 mph 29.9 mph N/A   Mostly Cloudy
2:35 PM 32.0 °F 22.1 °F 19.4 °F 60% 30.26 in 10.0 mi WNW 13.8 mph 20.7 mph N/A   Overcast
2:55 PM 32.0 °F 22.5 °F 21.2 °F 64% 30.26 in 10.0 mi West 12.7 mph 18.4 mph N/A   Overcast
3:15 PM 32.0 °F 21.6 °F 19.4 °F 60% 30.25 in 10.0 mi West 15.0 mph 26.5 mph N/A   Overcast
3:35 PM 30.2 °F 18.5 °F 26.6 °F 86% 30.26 in 3.0 mi NW 17.3 mph 23.0 mph 0.01 in Snow Light Snow
3:55 PM 30.2 °F 20.8 °F 24.8 °F 80% 30.25 in 10.0 mi WNW 11.5 mph 16.1 mph 0.02 in   Overcast
4:15 PM 32.0 °F 18.9 °F 23.0 °F 69% 30.25 in 10.0 mi West 24.2 mph 31.1 mph N/A   Overcast
4:35 PM 28.4 °F 17.5 °F 24.8 °F 86% 30.25 in 5.0 mi WNW 13.8 mph - N/A Snow Light Snow
4:55 PM 30.2 °F 20.2 °F 24.8 °F 80% 30.25 in 10.0 mi WNW 12.7 mph - N/A   Overcast
5:15 PM 30.2 °F 20.8 °F 24.8 °F 80% 30.25 in 10.0 mi NW 11.5 mph - N/A   Overcast
5:35 PM 30.2 °F 21.3 °F 24.8 °F 80% 30.25 in 10.0 mi WNW 10.4 mph - N/A   Overcast
5:55 PM 30.2 °F 20.2 °F 24.8 °F 80% 30.25 in 2.5 mi WNW 12.7 mph - N/A Snow Light Snow
6:15 PM 28.4 °F 20.4 °F 26.6 °F 93% 30.25 in 10.0 mi West 8.1 mph - N/A   Mostly Cloudy
6:35 PM 28.4 °F 19.1 °F 24.8 °F 86% 30.25 in 10.0 mi West 10.4 mph - N/A   Overcast
6:55 PM 28.4 °F 20.4 °F 24.8 °F 86% 30.25 in 10.0 mi West 8.1 mph - N/A   Overcast
7:15 PM 28.4 °F 20.4 °F 23.0 °F 80% 30.25 in 10.0 mi West 8.1 mph - N/A   Overcast
7:35 PM 28.4 °F 21.2 °F 23.0 °F 80% 30.26 in 10.0 mi West 6.9 mph - N/A   Overcast
7:55 PM 28.4 °F 22.2 °F 23.0 °F 80% 30.26 in 10.0 mi West 5.8 mph - N/A   Overcast
8:15 PM 26.6 °F 20.0 °F 24.8 °F 93% 30.26 in 10.0 mi West 5.8 mph - N/A   Overcast
8:35 PM 26.6 °F 20.0 °F 24.8 °F 93% 30.26 in 10.0 mi West 5.8 mph - N/A   Overcast
8:55 PM 26.6 °F 20.0 °F 24.8 °F 93% 30.26 in 10.0 mi West 5.8 mph - N/A   Overcast
9:15 PM 26.6 °F 22.6 °F 24.8 °F 93% 30.25 in 10.0 mi WNW 3.5 mph - N/A   Overcast
9:35 PM 26.6 °F 22.6 °F 24.8 °F 93% 30.25 in 10.0 mi WNW 3.5 mph - N/A   Overcast
9:55 PM 26.6 °F 21.2 °F 24.8 °F 93% 30.26 in 10.0 mi WNW 4.6 mph - N/A   Overcast
10:35 PM 24.8 °F 16.9 °F 23.0 °F 93% 30.26 in 10.0 mi NW 6.9 mph - N/A   Mostly Cloudy
10:55 PM 23.0 °F 15.8 °F 19.4 °F 86% 30.26 in 10.0 mi NW 5.8 mph - N/A   Partly Cloudy
11:15 PM 26.6 °F 20.0 °F 21.2 °F 80% 30.26 in 10.0 mi WNW 5.8 mph - N/A   Mostly Cloudy
11:35 PM 24.8 °F 17.9 °F 21.2 °F 86% 30.26 in 10.0 mi WNW 5.8 mph - N/A   Overcast
11:55 PM 23.0 °F 14.7 °F 19.4 °F 86% 30.25 in 10.0 mi NW 6.9 mph - N/A   Mostly Cloudy